Fairview Valley, Nevada Weather observations

Data are for observation ending at time listed.
 Day   Time    Ave.   Ave.  Ave.  Vector   Max.   Stn.    Total    Solar   Ave.   Ave.    #1       #2
  of    of     Air    Rel.  Wind   Wind    Wind   Baro.  Precip.   Rad.    Soil   Vis.   Cloud   Cloud
Year   Day     Temp.  Hum.  Speed  Dir.    Gust   Pres.                    Temp.          Ceil    Ceil
2014   (PST)    F      %     mph   deg.    mph     mb.     in.     W/m2     F     (km)   k ft.   k ft.
------------------------------------------------------------------------------------------------------
 355    8:50   41.7    91    4.2   153      7.5    876     0.00     107    41.1   999.0    0.0  999.0
 355    9:00   42.7    88    4.6   202      8.3    876     0.00     124    41.1   999.0    0.0  999.0
 355    9:10   43.6    86    2.9   206      5.6    876     0.00     143    41.1   999.0    6.1  999.0
 355    9:20   44.4    86    1.6   166      3.7    876     0.00     128    41.1   999.0    6.1  999.0
 355    9:30   45.2    86    1.9   129      4.0    876     0.00     154    41.2   999.0    6.0  999.0
 355    9:40   46.7    82    3.3   176      4.6    876     0.00     141    41.2   999.0    6.2  999.0
 355    9:50   47.4    81    3.0   220      4.8    876     0.00     215    41.3   999.0    2.9  999.0
 355   10:00   47.5    80    3.6   201      7.3    876     0.00     244    41.3   999.0    1.1  999.0
 355   10:10   47.3    80    5.2   180      7.6    876     0.00     199    41.3   999.0    6.1  999.0
 355   10:20   47.5    82    6.1   185      8.5    877     0.00     232    41.4   999.0    5.8  999.0
 355   10:30   47.9    82    7.8   179      9.9    876     0.00     192    41.5   999.0    5.7  999.0
 355   10:40   48.0    84    6.9   156     10.4    876     0.00     167    41.6   999.0    5.3  999.0
 355   10:50   52.3    70    8.0   170     11.5    876     0.00     177    41.7   999.0    5.0  999.0
 355   11:00   55.4    60    5.4   186      8.7    877     0.00     173    41.8   999.0    5.0  999.0
 355   11:10   56.3    58    5.9   203      9.6    876     0.00     229    41.9   999.0    5.1  999.0
 355   11:20   56.7    58    3.6   211      5.6    876     0.00     173    42.0   999.0    5.0  999.0
 355   11:30   56.9    58    5.9   205      8.5    876     0.00     365    42.1   999.0    5.0  999.0
 355   11:40   58.5    54    7.0   203      9.9    876     0.00     458    42.3   999.0    4.0  999.0
 355   11:50   58.7    53    8.8   214     15.9    876     0.00     356    42.4   999.0    2.9  999.0
 355   12:00   58.0    54    9.5   238     13.3    876     0.00     352    42.5   999.0    1.8  999.0
 355   12:10   57.9    55    8.7   242     14.1    876     0.00     269    42.7   999.0    5.3  999.0
 355   12:20   57.7    55    9.3   242     13.4    876     0.00     223    42.9   999.0    5.2  999.0
 355   12:30   58.1    53    9.6   259     14.9    875     0.00     277    43.0   999.0    4.4  999.0
 355   12:40   58.0    54    7.3   259     13.6    875     0.00     141    43.2   999.0    4.9  999.0
 355   12:50   57.7    54    6.0   273      9.4    875     0.00      80    43.4   999.0    4.6  999.0
 355   13:00   57.6    54    4.7   212      7.4    875     0.00      59    43.6   999.0    4.5  999.0
 355   13:10   57.3    55    4.9   202      6.9    875     0.00      53    43.7   999.0    4.5  999.0
 355   13:20   57.0    58    4.9   189      7.7    875     0.00      52    43.9   999.0    4.5  999.0
 355   13:30   56.9    58    3.9   212      5.9    876     0.00      57    44.1   999.0    4.6  999.0
 355   13:40   57.0    56    5.3   218     11.4    876     0.00      69    44.2   999.0    5.0  999.0
 355   13:50   57.5    56    3.6   242      9.1    876     0.00     107    44.4   999.0    5.4  999.0
 355   14:00   58.2    55    8.8   261     14.8    876     0.00     110    44.5   999.0    5.5  999.0
 355   14:10   58.5    54    9.7   239     15.9    875     0.00     146    44.6   999.0    3.1  999.0
 355   14:20   58.5    55    6.5   260     11.2    875     0.00      90    44.7   999.0    5.3  999.0
 355   14:30   58.3    55    5.6   258     11.0    875     0.00      31    44.8   999.0    5.0  999.0
 355   14:40   57.9    55   10.7   263     16.7    875     0.00      27    44.9   999.0    4.9  999.0
 355   14:50   57.8    54   12.3   259     16.6    875     0.00      29    45.0   999.0    5.0  999.0
 355   15:00   57.3    56   10.1   255     15.2    876     0.00      28    45.1   999.0    5.0  999.0
 355   15:10   57.2    56    9.1   253     11.8    876     0.00      23    45.2   999.0    5.0  999.0
 355   15:20   56.9    57    8.7   251     11.8    876     0.00      20    45.3   999.0    5.0  999.0
 355   15:30   56.8    57    7.7   244     13.2    876     0.00      13    45.4   999.0    4.9  999.0
 355   15:40   56.8    57    9.1   242     12.5    876     0.00       9    45.4   999.0    4.9  999.0
 355   15:50   56.4    58    7.5   235     10.6    876     0.00       8    45.5   999.0    4.8  999.0
 355   16:00   56.0    59    6.7   232      8.5    876     0.00       6    45.5   999.0    4.7  999.0
 355   16:10   56.4    58    6.8   224      8.9    876     0.00       5    45.6   999.0    4.8  999.0
 355   16:20   56.0    59    6.8   209      9.0    876     0.00       4    45.6   999.0    5.1  999.0
 355   16:30   55.5    61    6.4   207      9.0    876     0.00       2    45.7   999.0    5.2  999.0
 355   16:40   56.3    57    7.0   224     13.1    876     0.00       2    45.7   999.0    5.1  999.0
 355   16:50   56.1    59    6.0   202      7.7    876     0.00       2    45.8   999.0    4.8  999.0
 355   17:00   54.7    64    6.5   214     10.7    876     0.00       0    45.8   999.0    4.7  999.0
 355   17:10   54.8    63    8.1   230     10.5    876     0.00       0    45.8   999.0    4.9  999.0
 355   17:20   54.4    63    6.0   251      7.7    876     0.00       0    45.8   999.0    5.3  999.0
 355   17:30   54.5    63    4.2   258      5.7    876     0.00       0    45.9   999.0    5.5  999.0
 355   17:40   53.7    66    3.4   218      4.7    876     0.00       0    45.9   999.0    5.6  999.0
 355   17:50   53.8    64    5.9   207     12.6    876     0.00       0    45.9   999.0    5.3  999.0
 355   18:00   54.9    61    5.9   177     12.2    876     0.00       0    45.9   999.0    4.7  999.0
 355   18:10   55.1    61    5.6   189     12.3    877     0.00       0    45.9   999.0    6.3  999.0
 355   18:20   54.5    62    4.8   208      8.3    877     0.00       0    45.9   999.0    6.5  999.0
 355   18:30   54.4    63    5.0   217      7.7    877     0.00       0    45.9   999.0    5.9  999.0
 355   18:40   54.0    64    3.4   199      6.4    877     0.00       0    45.9   999.0    5.3  999.0
 355   18:50   54.2    64    6.0   210      8.4    877     0.00       0    45.9   999.0    5.2  999.0
 355   19:00   54.1    64    6.1   199      8.8    877     0.00       0    45.9   999.0    4.9  999.0
 355   19:10   54.1    64    6.2   199      9.3    877     0.00       0    45.9   999.0    5.0  999.0
 355   19:20   54.3    63    6.3   197     10.0    877     0.00       0    45.9   999.0    4.7  999.0
 355   19:30   54.2    64    6.8   211     10.7    877     0.00       0    46.0   999.0    4.6  999.0
 355   19:40   54.0    64    7.5   211     10.4    877     0.00       0    45.9   999.0    4.9  999.0
 355   19:50   52.8    68    7.3   190      8.9    877     0.00       0    45.9   999.0    4.7  999.0
 355   20:00   52.0    71    8.2   176     10.2    877     0.00       0    45.9   999.0    4.5  999.0
 355   20:10   51.9    71    8.2   197     10.7    877     0.00       0    45.9   999.0    4.6  999.0
 355   20:20   52.8    66    7.9   221     11.8    877     0.00       0    45.9   999.0    5.6  999.0
 355   20:30   53.6    64    8.6   227     14.1    877     0.00       0    45.9   999.0    5.7  999.0
 355   20:40   53.0    65    9.4   225     13.5    877     0.00       0    45.9   999.0    5.5  999.0
 355   20:50   52.5    66   11.7   240     14.8    877     0.00       0    46.0   999.0    5.5  999.0
 355   21:00   52.5    66    9.3   247     13.6    878     0.00       0    46.0   999.0    5.5  999.0
 355   21:10   51.6    68    5.1   259      7.4    878     0.00       0    45.9   999.0    6.1  999.0
 355   21:20   51.4    69    4.2   262      7.7    878     0.00       0    45.9   999.0    5.9  999.0
 355   21:30   50.6    71    3.5   282      5.3    878     0.00       0    45.9   999.0    5.7  999.0
 355   21:40   50.9    69    5.4   256     10.4    878     0.00       0    45.9   999.0    5.3  999.0
 355   21:50   52.0    66    5.1   264      6.9    878     0.00       0    45.9   999.0    5.6  999.0
 355   22:00   51.5    67    6.9   245     10.4    878     0.00       0    45.9   999.0    6.1  999.0
 355   22:10   51.4    67    7.4   244     10.7    878     0.00       0    45.9   999.0    6.3  999.0
 355   22:20   51.2    67    7.3   254     11.1    878     0.00       0    45.9   999.0    6.0  999.0
 355   22:30   51.5    66    8.8   259     11.9    878     0.00       0    45.9   999.0    5.7  999.0
 355   22:40   51.8    64    9.8   256     12.9    878     0.00       0    45.9   999.0    5.7  999.0
 355   22:50   51.3    66   10.2   259     12.9    878     0.00       0    45.9   999.0    5.4  999.0
 355   23:00   51.2    65   12.1   257     15.0    878     0.00       0    45.9   999.0    2.5  999.0
 355   23:10   50.4    67   13.9   262     15.7    878     0.00       0    45.8   999.0    0.0  999.0
 355   23:20   49.9    68   14.3   265     17.0    877     0.00       0    45.8   999.0    0.0  999.0
 355   23:30   49.9    66   15.0   269     18.1    877     0.00       0    45.8   999.0    3.7  999.0
 355   23:40   49.7    67   15.3   271     18.0    877     0.00       0    45.8   999.0    1.4  999.0
 355   23:50   49.1    68   14.9   270     18.3    877     0.00       0    45.8   999.0    3.4  999.0
 356    0:00   48.7    69   14.1   270     17.3    877     0.00       0    45.8   999.0    3.9  999.0
 356    0:10   49.0    68   14.1   272     17.5    878     0.00       0    45.7   999.0    7.1  999.0
 356    0:20   48.8    68   13.4   274     16.1    878     0.00       0    45.7   999.0    6.4  999.0
 356    0:30   48.6    68   13.2   276     17.8    877     0.00       0    45.7   999.0    1.7  999.0
 356    0:40   48.3    69   13.8   282     18.6    877     0.00       0    45.6   999.0    0.1  999.0
 356    0:50   47.6    70   17.2   282     21.0    877     0.00       0    45.6   999.0    0.3  999.0
 356    1:00   47.5    70   16.0   280     20.5    877     0.00       0    45.6   999.0    3.0  999.0
 356    1:10   46.9    71   14.1   280     18.3    877     0.00       0    45.5   999.0    0.6  999.0
 356    1:20   47.0    71   12.6   277     16.2    878     0.00       0    45.5   999.0    1.0  999.0
 356    1:30   46.9    71   12.3   276     15.4    878     0.00       0    45.4   999.0    0.8  999.0
 356    1:40   47.2    70   11.8   267     15.4    878     0.00       0    45.4   999.0    0.0  999.0
 356    1:50   47.5    69    9.1   258     12.3    877     0.00       0    45.3   999.0    0.0  999.0
 356    2:00   46.9    70    6.8   235     11.0    877     0.00       0    45.3   999.0    0.0  999.0
 356    2:10   46.3    71    8.1   213     11.5    878     0.00       0    45.2   999.0    0.0  999.0
 356    2:20   46.7    70    6.6   218      8.8    877     0.00       0    45.1   999.0    0.0  999.0
 356    2:30   46.6    70    6.4   238      7.9    878     0.00       0    45.1   999.0    0.0  999.0
 356    2:40   45.1    73    7.2   254      9.5    878     0.00       0    45.0   999.0    0.0  999.0
 356    2:50   44.1    74    4.3   233      6.2    878     0.00       0    44.9   999.0    1.0  999.0
 356    3:00   43.6    76    6.2   228      8.8    878     0.00       0    44.8   999.0    0.0  999.0
 356    3:10   44.6    74    7.4   236      9.3    878     0.00       0    44.7   999.0    0.0  999.0
 356    3:20   44.3    74    8.9   242     11.5    878     0.00       0    44.7   999.0    0.0  999.0
 356    3:30   43.6    75   10.6   248     12.6    877     0.00       0    44.6   999.0    0.0  999.0
 356    3:40   42.2    78    9.9   247     11.6    877     0.00       0    44.5   999.0    0.0  999.0
 356    3:50   42.4    79    6.9   222     10.6    877     0.00       0    44.5   999.0    0.0  999.0
 356    4:00   41.2    80    7.1   179      9.5    877     0.00       0    44.4   999.0    0.0  999.0
 356    4:10   40.1    82    6.7   193      8.0    877     0.00       0    44.3   999.0    0.0  999.0
 356    4:20   39.9    83    5.9   184      6.7    877     0.00       0    44.2   356.0  250.0  999.0
 356    4:30  999.0   999  999.0   999    999.0    999    999.00     999   999.0   999.0  999.0  999.0
 356    4:40  999.0   999  999.0   999    999.0    999    999.00     999   999.0   999.0  999.0  999.0
 356    4:50   40.1    82    1.6   250      5.0    876     0.00       0    44.0   999.0    0.0  999.0
 356    5:00   40.7    80    2.9   246      5.3    877     0.00       0    43.9   999.0    0.0  999.0
 356    5:10   44.5   222  356.0   350      0.0    1036     5.79      32   173.4     0.0    6.9  999.0
 356    5:20  999.0   999  999.0   999    999.0    999    999.00     999   999.0   999.0  999.0  999.0
 356    5:30  999.0   999  999.0   999    999.0    999    999.00     999   999.0   999.0  999.0  999.0
 356    5:40  999.0   999  999.0   999    999.0    999    999.00     999   999.0   999.0  999.0  999.0
 356    5:50   39.3    82    0.8   193      4.2    877     0.00       0    43.5   356.0  450.0  999.0
 356    6:00  999.0   999  999.0   999    999.0    999    999.00     999   999.0   999.0  999.0  999.0
 356    6:10  999.0   999  999.0   999    999.0    999    999.00     999   999.0   999.0  999.0  999.0
 356    6:20  999.0   999  999.0   999    999.0    999    999.00     999   999.0   999.0  999.0  999.0
 356    6:30  999.0   999  999.0   999    999.0    999    999.00     999   999.0   999.0  999.0  999.0
 356    6:40  999.0   999  999.0   999    999.0    999    999.00     999   999.0   999.0  999.0  999.0
 356    6:50   37.9    84    3.7   209      4.7    877     0.00       0    42.9   999.0    0.0  999.0
 356    7:00   38.5    83    3.8   224      7.7    877     0.00       1    42.8   999.0    0.0  999.0
 356    7:10   38.3    82    5.4   179      7.9    877     0.00       3    42.7   999.0    0.0  999.0
 356    7:20   37.7    84    4.0   155      6.3    877     0.00       6    42.6   999.0    0.0  999.0
 356    7:30   38.8    83    5.1   186      7.0    877     0.00      16    42.5   999.0    0.0  999.0
 356    7:40   40.0    80    4.0   176      5.3    877     0.00      27    42.4   999.0    0.0  999.0
 356    7:50   39.7    80    4.0   179      5.6    877     0.00      40    42.3   999.0    0.0  999.0
 356    8:00   38.3    80    2.3   271      4.7    878     0.00      30    42.2   999.0    0.0  999.0
 356    8:10   37.3    85    4.7   167      6.6    878     0.00      49    42.2   999.0    0.0  999.0
 356    8:20   38.1    84    5.8   180      7.3    878     0.00      42    42.1   999.0    0.0  999.0
 356    8:30   38.0    84    4.7   220      7.2    878     0.00      48    42.0   999.0    0.2  999.0
 356    8:40   39.1    82    3.1   220      7.1    878     0.00      65    41.9   999.0    1.0  999.0

Return to Fairview Valley graphs page.


Western Regional Climate Center,wrcc@dri.edu